AirNav   ATP
 
 1495 users online  

1U3 Murphy Airport
Murphy, Idaho, USA


FAA INFORMATION EFFECTIVE 01 FEBRUARY 2018

Location

FAA Identifier: 1U3
Lat/Long: 43-12-57.4000N / 116-32-54.1000W
43-12.956667N / 116-32.901667W
43.2159444 / -116.5483611
(estimated)
Elevation: 2855 ft. / 870 m (estimated)
Variation: 17E (1985)
Time zone: UTC -7 (UTC -6 during Daylight Saving Time)
Zip code: 83650

Airport Operations

Airport use: Open to the public
Activation date: 04/1956
Control tower: no
ARTCC: SALT LAKE CITY CENTER
FSS: BOISE FLIGHT SERVICE STATION
NOTAMs facility: BOI (NOTAM-D service available)
Attendance: UNATNDD
CTC SHERIFF'S OFC IN COURTHOUSE ACROSS HWY FM ARPT FOR ASSISTANCE
Wind indicator: yes
Segmented circle: no

Airport Communications

CTAF: 122.9

Nearby radio navigation aids

VOR radial/distance  VOR name  Freq  Var
BOIr201/25.5BOISE VORTAC113.3017E
LIAr274/(36.7)LIBERATOR VOR114.9018E

Airport Services

Parking: tiedowns
Airframe service: NONE
Powerplant service: NONE
Bottled oxygen: NONE
Bulk oxygen: NONE

Runway Information

Runway 12/30

Dimensions: 2500 x 45 ft. / 762 x 14 m
Surface: asphalt, in good condition
Runway edge markings: THLDS MKD WITH PAINTED ROCKS.
Operational restrictions: RCMD LAND RY 12 TKOF RY 30 WHEN WIND COND PERMITS.
RUNWAY 12  RUNWAY 30
Latitude: 43-13.103000N43-12.811500N
Longitude: 116-33.100333W116-32.703000W
Traffic pattern: leftleft
Markings: numbers only, in fair conditionnumbers only, in fair condition
Obstructions: 5 ft. road, 200 ft. from runway
+3 FT FENCE 20 FT FM RY END 60 FT L; +10 FT ROAD 0' FM RY END 100 FT R; +6 FT SIGN AT 20 FT 80 FT R.
18 ft. road, 200 ft. from runway, 100 ft. left of centerline
+17 FT RD 0 FT FM RY END 100 FT L; +10 FT ROAD AT 50 FT ON CNTRLN.

Airport Ownership and Management from official FAA records

Ownership: Publicly-owned
Owner: OWYHEE COUNTY
P.O. BOX 128
MURPHY, ID 83650
Phone 208-495-2421
Manager: JIM DESMOND
2773 N HAVEN
EAGLE, ID 83616
Phone 208-938-1270

Airport Operational Statistics

Aircraft operations: avg 39/week *
99% transient general aviation
1% military
* for 12-month period ending 28 April 2017

Additional Remarks

NUMEROUS SIGNS TO +12' ON BOTH SIDES OF HIGHWAY ADJACENT TO RY.
RY 30 HAS 150 FT PLINE & TERRAIN AT 3000 FT ON CNTRLN.

Instrument Procedures

There are no published instrument procedures at 1U3.

Some nearby airports with instrument procedures:

KMAN - Nampa Municipal Airport (22 nm N)
KBOI - Boise Air Terminal/Gowen Field (25 nm NE)
KEUL - Caldwell Industrial Airport (26 nm N)
KMUO - Mountain Home Air Force Base (31 nm E)
U76 - Mountain Home Municipal Airport (36 nm E)
 
Loc | Ops | Rwys | IFR | FBO | Links
Com | Nav | Svcs | Stats | Notes

AirNav Hotels Sweepstakes
 
Area around 1U3 (Murphy Airport)
 
Road maps at: MapQuest Bing Google
 
Aerial photo
WARNING: Photo may not be current or correct
Aerial photo of 1U3 (Murphy Airport)
Do you have a better or more recent aerial photo of Murphy Airport that you would like to share? If so, please send us your photo.

 
Sectional chart

 
Airport distance calculator
Flying to Murphy Airport? Find the distance to fly.

From to 1U3

Sunrise and sunset
Times for 22-Feb-2018
 Local
(UTC-7)
 Zulu
(UTC)
Morning civil twilight07:0614:06
Sunrise07:3514:35
Sunset18:2501:25
Evening civil twilight18:5401:54

Current date and time
Zulu (UTC)  22-Feb-2018 16:52:28
Local (UTC-7)  22-Feb-2018 09:52:28
 
METAR
KMAN 
22nm N 
221635Z AUTO 33005KT 2SM BR CLR M03/M03 A3000 RMK A01
KEUL 
24nm N 
221629Z AUTO 31005KT 3SM -SN BR SCT019 BKN027 OVC043 M03/M04 A3001 RMK AO2 P0000 FZRANO
KBOI 
25nm NE 
221638Z 31007KT 1 1/4SM R10R/6000VP6000FT -SN BR OVC007 M04/M06 A2998 RMK AO2 P0000 T10391056
KMUO 
32nm E 
221558Z 09005KT 1 1/2SM -SN BKN008 BKN012 OVC019 M03/M03 A2997 RMK SNE1505UPB1505E1510SNB1533 CIG 008V011 CIG 005 RWY30 SLP175 P0000 T10351035 $
U76 
36nm E 
SuperAWOS
221555Z AUTO 10005KT 3SM BR M04/M05 A2991
TAF
KEUL 
24nm N 
221139Z 2212/2312 27006KT 2SM -SN BR OVC015 TEMPO 2214/2218 1SM -SN BR OVC005 FM221900 30011KT P6SM OVC030 TEMPO 2219/2221 6SM -SHSN BR OVC030 FM230200 31011KT P6SM OVC070
KBOI 
25nm NE 
221139Z 2212/2312 29006KT 2SM -SN BR OVC025 TEMPO 2212/2216 1SM -SN BR OVC006 FM221900 29010KT P6SM OVC030 TEMPO 2219/2222 5SM -SHSN BR OVC030 FM230200 32010KT P6SM OVC080
NOTAMs
Click for the latest NOTAMs
NOTAMs are issued by the DoD/FAA and will open in a separate window not controlled by AirNav.

 

 
 

Would you like to see your business listed on this page?

 If your business provides an interesting product or service to pilots, flight crews, aircraft, or users of the Murphy Airport, you should consider listing it here.  To start the listing process, click on the button below
 
Add a business
 

Other Pages about Murphy Airport

Update a link
 
Copyright © AirNav, LLC. All rights reserved. Privacy Policy  Contact